Time;durP1;ratioP1;P1;durP2;ratioP2;P2;SDS_P1;SDS_P2;PMS_P1;PMS_P2;Temp;Humidity;BMP_temperature;BMP_pressure;BME280_temperature;BME280_humidity;BME280_pressure;Samples;Min_cycle;Max_cycle;Signal;HPM_P1;HPM_P2
2021/03/23 00:01:37;;;;;;;1.53;1.20;;;6.90;97.40;;;;;;5020761;28;20520;-78
2021/03/23 00:04:05;;;;;;;1.57;1.20;;;6.80;97.50;;;;;;5032601;28;20463;-78
2021/03/23 00:06:31;;;;;;;1.53;1.20;;;6.80;97.50;;;;;;5032678;28;20546;-78
2021/03/23 00:09:00;;;;;;;1.53;1.20;;;6.80;97.60;;;;;;5034721;28;20464;-77
2021/03/23 00:11:30;;;;;;;1.50;1.20;;;6.80;97.30;;;;;;5017348;28;20485;-78
2021/03/23 00:13:58;;;;;;;1.50;1.20;;;6.80;97.30;;;;;;5046801;28;20467;-77
2021/03/23 00:16:29;;;;;;;1.50;1.20;;;6.80;97.00;;;;;;5018062;28;20629;-77
2021/03/23 00:18:56;;;;;;;1.60;1.20;;;6.80;96.60;;;;;;5037888;28;20500;-78
2021/03/23 00:21:25;;;;;;;1.60;1.20;;;6.80;96.80;;;;;;5024538;28;20483;-77
2021/03/23 00:23:52;;;;;;;1.57;1.23;;;6.80;96.70;;;;;;5040352;28;20478;-78
2021/03/23 00:26:19;;;;;;;1.53;1.30;;;6.80;96.80;;;;;;5018365;28;20479;-77
2021/03/23 00:28:48;;;;;;;1.50;1.20;;;6.80;96.70;;;;;;5038272;28;20464;-78
2021/03/23 00:31:15;;;;;;;1.50;1.20;;;6.80;96.70;;;;;;5019866;28;20481;-77
2021/03/23 00:33:42;;;;;;;1.50;1.30;;;6.80;96.80;;;;;;5045560;28;20566;-78
2021/03/23 00:36:10;;;;;;;1.50;1.20;;;6.80;96.70;;;;;;5025904;28;20517;-77
2021/03/23 00:38:38;;;;;;;1.50;1.20;;;6.80;97.10;;;;;;5035516;28;21139;-77
2021/03/23 00:41:06;;;;;;;1.60;1.33;;;6.80;96.70;;;;;;5010665;28;21121;-77
2021/03/23 00:43:33;;;;;;;1.57;1.20;;;6.80;96.70;;;;;;5023792;28;20463;-77
2021/03/23 00:46:00;;;;;;;1.53;1.10;;;6.80;96.70;;;;;;5008635;28;20487;-77
2021/03/23 00:48:26;;;;;;;1.53;1.20;;;6.80;96.80;;;;;;5023511;28;20562;-77
2021/03/23 00:50:53;;;;;;;1.53;1.27;;;6.80;96.70;;;;;;5009114;28;20463;-77
2021/03/23 00:53:19;;;;;;;1.50;1.30;;;6.80;97.10;;;;;;5022267;28;20471;-78
2021/03/23 00:55:45;;;;;;;1.57;1.27;;;6.80;97.00;;;;;;5019041;28;20915;-78
2021/03/23 00:58:11;;;;;;;1.60;1.30;;;6.80;97.00;;;;;;5024881;28;20549;-77
2021/03/23 01:00:38;;;;;;;1.50;1.20;;;6.70;97.30;;;;;;5037856;28;20856;-78
2021/03/23 01:03:05;;;;;;;1.53;1.20;;;6.70;97.40;;;;;;5037802;28;20486;-77
2021/03/23 01:05:35;;;;;;;1.53;1.27;;;6.70;97.50;;;;;;5046333;28;20556;-77
2021/03/23 01:08:03;;;;;;;1.60;1.30;;;6.60;97.60;;;;;;5045825;28;20477;-77
2021/03/23 01:10:33;;;;;;;1.53;1.20;;;6.50;97.40;;;;;;5040614;28;20463;-78
2021/03/23 01:12:59;;;;;;;1.57;1.30;;;6.50;97.70;;;;;;5041368;28;20520;-77
2021/03/23 01:15:44;;;;;;;1.53;1.27;;;6.40;97.30;;;;;;5042070;28;20487;-77
2021/03/23 01:18:15;;;;;;;1.53;1.20;;;6.30;97.90;;;;;;5035580;28;20486;-77
2021/03/23 01:20:41;;;;;;;1.60;1.30;;;6.20;98.20;;;;;;5043416;28;20481;-78
2021/03/23 01:23:08;;;;;;;1.60;1.30;;;6.10;98.20;;;;;;5047615;28;20487;-78
2021/03/23 01:25:34;;;;;;;1.60;1.27;;;6.00;98.20;;;;;;5055907;28;20495;-77
2021/03/23 01:28:01;;;;;;;1.60;1.27;;;5.90;98.20;;;;;;5051193;28;21020;-77
2021/03/23 01:30:28;;;;;;;1.60;1.30;;;5.80;98.20;;;;;;5046006;28;20542;-78
2021/03/23 01:32:56;;;;;;;1.53;1.20;;;5.70;98.20;;;;;;5054190;28;20538;-77
2021/03/23 01:35:25;;;;;;;1.60;1.30;;;5.70;98.20;;;;;;5042242;28;20491;-77
2021/03/23 01:37:51;;;;;;;1.60;1.30;;;5.60;98.20;;;;;;5032753;28;20752;-77
2021/03/23 01:40:20;;;;;;;1.60;1.20;;;5.50;98.20;;;;;;5046599;28;20506;-77
2021/03/23 01:42:49;;;;;;;1.60;1.20;;;5.50;98.20;;;;;;5050968;28;20504;-78
2021/03/23 01:45:27;;;;;;;1.60;1.30;;;5.40;98.20;;;;;;5047255;28;21069;-77
2021/03/23 01:47:55;;;;;;;1.60;1.40;;;5.40;98.20;;;;;;5052505;28;20473;-78
2021/03/23 01:50:24;;;;;;;1.60;1.20;;;5.40;98.20;;;;;;5049023;28;20880;-78
2021/03/23 01:52:58;;;;;;;1.53;1.30;;;5.40;98.20;;;;;;5047095;28;20473;-78
2021/03/23 01:55:24;;;;;;;1.60;1.40;;;5.40;98.20;;;;;;5045452;28;20863;-78
2021/03/23 01:57:52;;;;;;;1.60;1.30;;;5.40;98.20;;;;;;5055516;28;21136;-78
2021/03/23 02:00:21;;;;;;;1.50;1.30;;;5.40;98.20;;;;;;5044795;28;20546;-78
2021/03/23 02:02:48;;;;;;;1.60;1.30;;;5.40;98.20;;;;;;5054400;28;20556;-78
2021/03/23 02:05:20;;;;;;;1.60;1.30;;;5.40;98.20;;;;;;5046096;28;20472;-78
2021/03/23 02:07:48;;;;;;;1.57;1.20;;;5.40;98.20;;;;;;5030867;28;20484;-78
2021/03/23 02:10:17;;;;;;;1.60;1.20;;;5.50;98.20;;;;;;5034028;28;20472;-77
2021/03/23 02:12:44;;;;;;;1.60;1.30;;;5.50;98.20;;;;;;5026412;28;20477;-78
2021/03/23 02:15:12;;;;;;;1.60;1.37;;;5.50;98.20;;;;;;5050437;28;20470;-78
2021/03/23 02:17:41;;;;;;;1.57;1.30;;;5.50;98.20;;;;;;5022542;28;20483;-78
2021/03/23 02:20:11;;;;;;;1.60;1.30;;;5.60;98.20;;;;;;5018409;28;20456;-80
2021/03/23 02:22:41;;;;;;;1.60;1.50;;;5.60;98.20;;;;;;5028230;28;20474;-78
2021/03/23 02:25:11;;;;;;;1.60;1.30;;;5.60;98.20;;;;;;5029288;28;20464;-78
2021/03/23 02:27:41;;;;;;;1.60;1.30;;;5.70;98.20;;;;;;5029862;28;20482;-78
2021/03/23 02:30:15;;;;;;;1.60;1.30;;;5.70;98.20;;;;;;5029659;28;20550;-78
2021/03/23 02:32:41;;;;;;;1.57;1.27;;;5.70;98.20;;;;;;5031092;28;20921;-77
2021/03/23 02:35:08;;;;;;;1.60;1.30;;;5.70;98.20;;;;;;5023188;28;20460;-78
2021/03/23 02:37:37;;;;;;;1.57;1.30;;;5.80;98.20;;;;;;5033149;28;20500;-78
2021/03/23 02:40:06;;;;;;;1.60;1.40;;;5.80;98.20;;;;;;5028496;28;20468;-78
2021/03/23 02:42:33;;;;;;;1.60;1.30;;;5.80;98.20;;;;;;5030833;28;20483;-78
2021/03/23 02:44:59;;;;;;;1.53;1.30;;;5.80;98.20;;;;;;5029356;28;20475;-78
2021/03/23 02:47:28;;;;;;;1.60;1.40;;;5.80;98.20;;;;;;5030925;28;20665;-78
2021/03/23 02:49:54;;;;;;;1.50;1.30;;;5.80;98.20;;;;;;5026542;28;20529;-78
2021/03/23 02:52:21;;;;;;;1.53;1.20;;;5.90;98.20;;;;;;5027954;28;20487;-78
2021/03/23 02:54:47;;;;;;;1.57;1.20;;;5.90;98.20;;;;;;5031177;28;20476;-78
2021/03/23 02:57:14;;;;;;;1.57;1.30;;;5.90;98.20;;;;;;5022656;28;20984;-78
2021/03/23 02:59:41;;;;;;;1.57;1.30;;;5.90;98.20;;;;;;5029137;28;20514;-78
2021/03/23 03:02:07;;;;;;;1.53;1.30;;;5.90;98.20;;;;;;5030207;28;20558;-78
2021/03/23 03:04:34;;;;;;;1.60;1.30;;;5.90;98.20;;;;;;5033686;28;20484;-78
2021/03/23 03:07:01;;;;;;;1.60;1.20;;;5.90;98.20;;;;;;5023723;28;20483;-77
2021/03/23 03:09:27;;;;;;;1.57;1.30;;;5.90;98.20;;;;;;5033582;28;20456;-78
2021/03/23 03:11:53;;;;;;;1.60;1.30;;;6.00;98.20;;;;;;5027676;28;21010;-78
2021/03/23 03:14:21;;;;;;;1.60;1.20;;;6.00;98.20;;;;;;5035043;28;20471;-78
2021/03/23 03:16:50;;;;;;;1.57;1.30;;;6.00;98.20;;;;;;5021831;28;20549;-78
2021/03/23 03:19:20;;;;;;;1.53;1.30;;;6.00;98.20;;;;;;5034012;28;20499;-78
2021/03/23 03:21:46;;;;;;;1.50;1.30;;;6.00;98.20;;;;;;5021383;28;20577;-77
2021/03/23 03:24:13;;;;;;;1.60;1.30;;;6.00;98.20;;;;;;5031611;28;20471;-78
2021/03/23 03:26:41;;;;;;;1.50;1.30;;;6.00;98.20;;;;;;5025560;28;20490;-78
2021/03/23 03:29:07;;;;;;;1.60;1.30;;;6.00;98.20;;;;;;5033753;28;20472;-78
2021/03/23 03:31:34;;;;;;;1.60;1.30;;;6.00;98.20;;;;;;5014203;28;20491;-78
2021/03/23 03:34:01;;;;;;;1.53;1.27;;;6.00;98.20;;;;;;5034986;28;20474;-78
2021/03/23 03:36:33;;;;;;;1.57;1.20;;;6.00;98.20;;;;;;5022804;28;20982;-78
2021/03/23 03:39:00;;;;;;;1.60;1.23;;;6.00;98.20;;;;;;5036593;28;20591;-77
2021/03/23 03:41:27;;;;;;;1.57;1.20;;;6.00;98.20;;;;;;5020457;28;20476;-78
2021/03/23 03:43:54;;;;;;;1.60;1.30;;;6.00;98.20;;;;;;5036706;28;20510;-78
2021/03/23 03:46:23;;;;;;;1.50;1.30;;;6.00;98.20;;;;;;5025892;28;20978;-78
2021/03/23 03:48:50;;;;;;;1.60;1.30;;;6.00;98.20;;;;;;5039960;28;20555;-77
2021/03/23 03:51:16;;;;;;;1.60;1.37;;;6.00;98.20;;;;;;5018572;28;20470;-78
2021/03/23 03:53:44;;;;;;;1.50;1.20;;;6.00;98.20;;;;;;5042128;28;20470;-77
2021/03/23 03:56:11;;;;;;;1.57;1.30;;;6.00;98.20;;;;;;5023364;28;20536;-78
2021/03/23 03:58:37;;;;;;;1.60;1.23;;;6.00;98.20;;;;;;5043415;28;20494;-78
2021/03/23 04:01:04;;;;;;;1.60;1.40;;;6.00;98.20;;;;;;5016664;28;20530;-78
2021/03/23 04:03:31;;;;;;;1.50;1.20;;;6.00;98.20;;;;;;5042133;28;20467;-78
2021/03/23 04:06:00;;;;;;;1.60;1.30;;;6.00;98.20;;;;;;5013910;28;20960;-78
2021/03/23 04:08:28;;;;;;;1.57;1.20;;;6.00;98.20;;;;;;5035450;28;21010;-78
2021/03/23 04:10:56;;;;;;;1.57;1.33;;;6.00;98.20;;;;;;5017084;28;20460;-78
2021/03/23 04:13:23;;;;;;;1.50;1.20;;;6.10;98.20;;;;;;5044923;28;20513;-77
2021/03/23 04:15:50;;;;;;;1.57;1.30;;;6.10;98.20;;;;;;5014539;28;20755;-77
2021/03/23 04:18:22;;;;;;;1.60;1.20;;;6.10;98.20;;;;;;5035977;28;21017;-77
2021/03/23 04:20:49;;;;;;;1.53;1.30;;;6.10;98.20;;;;;;5023125;28;20460;-79
2021/03/23 04:23:23;;;;;;;1.53;1.30;;;6.10;98.20;;;;;;5023247;28;20525;-78
2021/03/23 04:25:50;;;;;;;1.57;1.20;;;6.10;98.20;;;;;;5015677;28;20471;-78
2021/03/23 04:28:16;;;;;;;1.53;1.27;;;6.10;98.20;;;;;;5023211;28;20474;-77
2021/03/23 04:30:46;;;;;;;1.57;1.20;;;6.10;98.20;;;;;;5018501;28;20542;-78
2021/03/23 04:33:15;;;;;;;1.60;1.20;;;6.10;98.20;;;;;;5035224;28;20500;-79
2021/03/23 04:35:48;;;;;;;1.57;1.30;;;6.10;98.20;;;;;;5046631;28;20528;-79
2021/03/23 04:38:20;;;;;;;1.53;1.20;;;6.10;98.20;;;;;;5040065;28;20494;-79
2021/03/23 04:40:48;;;;;;;1.50;1.20;;;6.10;98.20;;;;;;5040625;28;20469;-78
2021/03/23 04:43:21;;;;;;;1.57;1.30;;;6.20;98.20;;;;;;5070075;28;20832;-79
2021/03/23 04:45:48;;;;;;;1.53;1.30;;;6.10;98.20;;;;;;5046747;28;20776;-78
2021/03/23 04:48:16;;;;;;;1.60;1.40;;;6.20;98.20;;;;;;5014044;28;20467;-78
2021/03/23 04:50:44;;;;;;;1.60;1.30;;;6.20;98.20;;;;;;5030191;28;20466;-78
2021/03/23 04:53:25;;;;;;;1.60;1.30;;;6.20;98.20;;;;;;5048459;28;20579;-79
2021/03/23 04:55:57;;;;;;;1.53;1.20;;;6.10;98.20;;;;;;5015173;28;20521;-78
2021/03/23 04:58:29;;;;;;;1.60;1.20;;;6.10;98.20;;;;;;5054071;28;20637;-79
2021/03/23 05:00:57;;;;;;;1.60;1.40;;;6.10;98.20;;;;;;5036888;28;20570;-77
2021/03/23 05:03:37;;;;;;;1.60;1.30;;;6.10;98.20;;;;;;5062879;28;20466;-78
2021/03/23 05:06:09;;;;;;;1.50;1.20;;;6.10;98.20;;;;;;5032698;28;20512;-79
2021/03/23 05:08:44;;;;;;;1.57;1.20;;;6.10;98.20;;;;;;5059344;28;20460;-79
2021/03/23 05:11:14;;;;;;;1.90;1.67;;;6.20;98.20;;;;;;5046200;28;20488;-78
2021/03/23 05:13:44;;;;;;;1.57;1.30;;;6.20;98.20;;;;;;5066275;28;20848;-78
2021/03/23 05:16:11;;;;;;;1.50;1.20;;;6.10;98.20;;;;;;5031334;28;20473;-79
2021/03/23 05:18:40;;;;;;;1.57;1.20;;;6.20;98.20;;;;;;5042541;28;20506;-78
2021/03/23 05:21:17;;;;;;;1.60;1.40;;;6.20;98.20;;;;;;5018449;28;20519;-79
2021/03/23 05:23:50;;;;;;;1.50;1.20;;;6.20;98.20;;;;;;5041068;28;20461;-79
2021/03/23 05:26:23;;;;;;;1.57;1.27;;;6.20;98.20;;;;;;5012550;28;20482;-78
2021/03/23 05:28:59;;;;;;;1.50;1.20;;;6.20;98.20;;;;;;5040876;28;20467;-78
2021/03/23 05:31:33;;;;;;;1.57;1.30;;;6.20;98.20;;;;;;5019304;28;20485;-78
2021/03/23 05:34:02;;;;;;;1.57;1.30;;;6.20;98.20;;;;;;5035452;28;20470;-79
2021/03/23 05:36:32;;;;;;;1.53;1.20;;;6.20;98.20;;;;;;5017486;28;20654;-78
2021/03/23 05:39:00;;;;;;;1.53;1.30;;;6.20;98.20;;;;;;5036436;28;21075;-79
2021/03/23 05:41:40;;;;;;;1.53;1.27;;;6.20;98.20;;;;;;5017221;28;20483;-78
2021/03/23 05:44:31;;;;;;;1.50;1.20;;;6.20;98.20;;;;;;5039600;28;20551;-79
2021/03/23 05:46:57;;;;;;;1.50;1.30;;;6.20;98.20;;;;;;5026239;28;20482;-78
2021/03/23 05:49:55;;;;;;;1.60;1.50;;;6.20;98.20;;;;;;5033465;28;20560;-79
2021/03/23 05:52:44;;;;;;;1.50;1.20;;;6.20;98.20;;;;;;4970065;28;20522;-79
2021/03/23 05:55:42;;;;;;;1.57;1.30;;;6.20;98.20;;;;;;5023647;28;20480;-79
2021/03/23 05:58:19;;;;;;;1.57;1.30;;;6.20;98.20;;;;;;4977281;28;20550;-80
2021/03/23 06:01:02;;;;;;;1.57;1.30;;;6.20;98.20;;;;;;5044476;28;20470;-78
2021/03/23 06:03:31;;;;;;;1.50;1.30;;;6.30;98.20;;;;;;5064849;28;20549;-77
2021/03/23 06:06:19;;;;;;;1.53;1.30;;;6.30;98.20;;;;;;5035858;28;20487;-78
2021/03/23 06:08:49;;;;;;;1.53;1.20;;;6.30;98.20;;;;;;5060424;28;20994;-80
2021/03/23 06:11:42;;;;;;;1.50;1.30;;;6.30;98.20;;;;;;5047994;28;21067;-79
2021/03/23 06:14:48;;;;;;;1.50;1.30;;;6.30;98.20;;;;;;5061601;28;20481;-79
2021/03/23 06:17:31;;;;;;;1.57;1.20;;;6.40;98.20;;;;;;5045609;28;20494;-78
2021/03/23 06:20:16;;;;;;;1.60;1.30;;;6.40;98.20;;;;;;5059922;28;21062;-79
2021/03/23 06:23:06;;;;;;;1.50;1.20;;;6.40;98.20;;;;;;5055353;28;20477;-78
2021/03/23 06:28:59;;;;;;;1.53;1.20;;;6.40;98.20;;;;;;5033728;28;20904;-79
2021/03/23 06:31:58;;;;;;;1.50;1.20;;;6.50;98.20;;;;;;5038776;28;20501;-79
2021/03/23 06:34:42;;;;;;;1.57;1.20;;;6.50;98.20;;;;;;5050965;28;20537;-79
2021/03/23 06:37:40;;;;;;;1.77;1.67;;;6.50;98.20;;;;;;5046341;28;20532;-79
2021/03/23 06:40:23;;;;;;;1.60;1.20;;;6.50;98.20;;;;;;5012200;28;20571;-79
2021/03/23 06:43:04;;;;;;;;;;;;;;;;;;;;;
2021/03/23 06:45:37;;;;;;;1.50;1.20;;;6.60;98.20;;;;;;5049550;28;20479;-77
2021/03/23 06:48:26;;;;;;;1.60;1.20;;;6.70;98.20;;;;;;5032153;28;20483;-78
2021/03/23 06:51:09;;;;;;;1.60;1.10;;;6.70;98.20;;;;;;5038287;28;20622;-77
2021/03/23 06:53:39;;;;;;;1.53;1.20;;;6.80;98.20;;;;;;5063936;28;20474;-79
2021/03/23 06:56:28;;;;;;;1.57;1.20;;;6.80;98.20;;;;;;5039084;28;20497;-78
2021/03/23 06:59:12;;;;;;;1.60;1.30;;;6.80;98.20;;;;;;5056504;28;20499;-78
2021/03/23 07:01:48;;;;;;;1.60;1.27;;;6.90;98.20;;;;;;5047493;28;20488;-78
2021/03/23 07:04:25;;;;;;;1.53;1.20;;;6.90;98.20;;;;;;5051621;28;20492;-79
2021/03/23 07:07:21;;;;;;;1.57;1.20;;;7.00;98.20;;;;;;5041837;28;20553;-78
2021/03/23 07:09:51;;;;;;;1.50;1.27;;;7.00;98.20;;;;;;5030471;28;20479;-77
2021/03/23 07:12:24;;;;;;;1.70;1.50;;;7.10;98.20;;;;;;5025099;28;20495;-78
2021/03/23 07:14:50;;;;;;;1.57;1.30;;;7.10;98.10;;;;;;5022211;28;20477;-77
2021/03/23 07:17:35;;;;;;;1.60;1.40;;;7.10;98.10;;;;;;5007761;28;20486;-77
2021/03/23 07:20:10;;;;;;;1.50;1.20;;;7.10;98.00;;;;;;5023557;28;20496;-77
2021/03/23 07:22:51;;;;;;;1.60;1.30;;;7.20;97.70;;;;;;5022593;28;20502;-78
2021/03/23 07:25:36;;;;;;;1.50;1.20;;;7.20;97.20;;;;;;5022939;28;20910;-77
2021/03/23 07:28:31;;;;;;;1.53;1.20;;;7.20;97.40;;;;;;5029993;28;20557;-78
2021/03/23 07:31:12;;;;;;;1.53;1.20;;;7.30;97.10;;;;;;5015066;28;20471;-77
2021/03/23 07:34:10;;;;;;;1.50;1.10;;;7.30;97.00;;;;;;5021881;28;20543;-77
2021/03/23 07:36:41;;;;;;;1.53;1.20;;;7.40;97.00;;;;;;5015264;28;20566;-77
2021/03/23 07:39:16;;;;;;;1.60;1.30;;;7.40;96.90;;;;;;5029243;28;20487;-77
2021/03/23 07:41:47;;;;;;;1.50;1.10;;;7.50;96.90;;;;;;5014364;28;20875;-77
2021/03/23 07:44:21;;;;;;;1.57;1.20;;;7.50;96.60;;;;;;5021466;28;20990;-77
2021/03/23 07:46:54;;;;;;;1.53;1.10;;;7.60;96.40;;;;;;5014551;28;20701;-77
2021/03/23 07:49:36;;;;;;;1.53;1.20;;;7.60;96.40;;;;;;5022737;28;20517;-77
2021/03/23 07:52:20;;;;;;;1.50;1.20;;;7.70;96.20;;;;;;5011265;28;21013;-77
2021/03/23 07:54:47;;;;;;;1.50;1.10;;;7.70;95.90;;;;;;5023071;28;20879;-77
2021/03/23 07:57:50;;;;;;;1.53;1.20;;;7.80;95.80;;;;;;5025937;28;20478;-78
2021/03/23 08:00:25;;;;;;;2.33;2.13;;;7.90;95.90;;;;;;5024806;28;20494;-78
2021/03/23 08:03:20;;;;;;;1.57;1.20;;;7.90;95.90;;;;;;5023317;28;20507;-77
2021/03/23 08:05:53;;;;;;;1.50;1.10;;;8.00;95.30;;;;;;5028041;28;20521;-79
2021/03/23 08:08:39;;;;;;;1.50;1.10;;;8.00;95.30;;;;;;5043454;28;20487;-79
2021/03/23 08:11:23;;;;;;;1.53;1.20;;;8.10;95.20;;;;;;5037924;28;20474;-78
2021/03/23 08:14:02;;;;;;;1.53;1.20;;;8.20;95.00;;;;;;5060120;28;20757;-77
2021/03/23 08:17:00;;;;;;;1.50;1.10;;;8.30;95.00;;;;;;5038605;28;20540;-79
2021/03/23 08:19:59;;;;;;;1.60;1.30;;;8.30;94.50;;;;;;5051057;28;20857;-79
2021/03/23 08:23:00;;;;;;;1.60;1.10;;;8.40;94.50;;;;;;5039787;28;20547;-79
2021/03/23 08:25:41;;;;;;;1.53;1.10;;;8.50;94.70;;;;;;5048965;28;20483;-79
2021/03/23 08:28:39;;;;;;;1.57;1.20;;;8.60;94.30;;;;;;5037013;28;20475;-78
2021/03/23 08:31:28;;;;;;;1.53;1.10;;;8.70;94.40;;;;;;5036342;28;20509;-78
2021/03/23 08:34:22;;;;;;;1.60;1.20;;;8.80;93.90;;;;;;5046633;28;20573;-78
2021/03/23 08:37:25;;;;;;;1.50;1.10;;;8.90;93.30;;;;;;5015413;28;20517;-78
2021/03/23 08:40:01;;;;;;;1.57;1.20;;;9.00;93.20;;;;;;5051002;28;20651;-79
2021/03/23 08:42:29;;;;;;;1.53;1.10;;;9.00;93.40;;;;;;5045881;28;21029;-79
2021/03/23 08:44:58;;;;;;;1.50;1.10;;;9.10;92.70;;;;;;5057690;28;20453;-79
2021/03/23 08:47:30;;;;;;;1.53;1.10;;;9.10;92.20;;;;;;5041841;28;20496;-79
2021/03/23 08:50:05;;;;;;;1.53;1.10;;;9.20;92.90;;;;;;5043938;28;20460;-78
2021/03/23 08:52:43;;;;;;;1.53;1.13;;;9.20;92.40;;;;;;5050353;28;20490;-79
2021/03/23 08:55:55;;;;;;;1.50;1.00;;;9.20;92.50;;;;;;5049241;28;20489;-79
2021/03/23 08:58:48;;;;;;;1.60;1.10;;;9.30;92.80;;;;;;4964546;28;20511;-79
2021/03/23 09:01:39;;;;;;;1.53;1.10;;;9.40;92.50;;;;;;5028878;28;20475;-79
2021/03/23 09:04:28;;;;;;;1.50;1.10;;;9.50;91.50;;;;;;5047608;28;20868;-78
2021/03/23 09:06:56;;;;;;;1.53;1.10;;;9.60;91.70;;;;;;5048535;28;20473;-79
2021/03/23 09:09:37;;;;;;;1.57;1.20;;;9.60;91.50;;;;;;5055200;28;20459;-79
2021/03/23 09:12:48;;;;;;;1.50;1.10;;;9.70;91.70;;;;;;5043204;28;20939;-78
2021/03/23 09:15:25;;;;;;;1.50;1.10;;;9.80;91.30;;;;;;5039857;28;20470;-78
2021/03/23 09:18:00;;;;;;;1.53;1.10;;;9.90;91.00;;;;;;5048960;28;20484;-78
2021/03/23 09:21:04;;;;;;;1.53;1.10;;;10.00;91.00;;;;;;5045325;28;20483;-79
2021/03/23 09:23:51;;;;;;;1.57;1.10;;;10.10;90.60;;;;;;5017562;28;20775;-79
2021/03/23 09:26:44;;;;;;;1.60;1.20;;;10.10;90.50;;;;;;5017723;28;20492;-79
2021/03/23 09:29:37;;;;;;;1.53;1.10;;;10.20;90.50;;;;;;5050509;28;20466;-80
2021/03/23 09:32:08;;;;;;;1.53;1.10;;;10.30;90.20;;;;;;5050207;28;20856;-80
2021/03/23 09:35:16;;;;;;;1.53;1.10;;;10.40;90.30;;;;;;5058200;28;20466;-79
2021/03/23 09:37:58;;;;;;;1.53;1.10;;;10.50;90.10;;;;;;4976765;28;20481;-79
2021/03/23 09:40:32;;;;;;;1.53;1.10;;;10.60;89.70;;;;;;5048219;28;20486;-80
2021/03/23 09:43:25;;;;;;;1.50;1.10;;;10.70;89.70;;;;;;5062012;28;20469;-78
2021/03/23 09:46:02;;;;;;;1.57;1.10;;;10.90;88.60;;;;;;5034793;28;20518;-79
2021/03/23 09:48:47;;;;;;;1.50;1.10;;;11.10;89.20;;;;;;5065446;28;20483;-80
2021/03/23 09:51:50;;;;;;;1.53;1.00;;;11.30;88.50;;;;;;5046076;28;20461;-80
2021/03/23 09:54:21;;;;;;;1.90;1.30;;;11.50;87.90;;;;;;5053685;28;20462;-78
2021/03/23 09:56:58;;;;;;;1.60;1.20;;;11.60;88.00;;;;;;5045455;28;20492;-77
2021/03/23 09:59:29;;;;;;;1.60;1.00;;;11.90;87.40;;;;;;5058602;28;20540;-79
2021/03/23 10:02:03;;;;;;;1.60;1.10;;;12.00;86.30;;;;;;5040462;28;20478;-79
2021/03/23 10:04:34;;;;;;;2.00;1.67;;;12.10;86.20;;;;;;5059043;28;20483;-79
2021/03/23 10:07:31;;;;;;;1.50;1.00;;;12.20;85.70;;;;;;5065637;28;20535;-78
2021/03/23 10:10:12;;;;;;;1.50;1.00;;;12.30;85.60;;;;;;5055293;28;20588;-78
2021/03/23 10:12:41;;;;;;;2.93;1.73;;;12.30;86.00;;;;;;5052507;28;20517;-78
2021/03/23 10:15:30;;;;;;;1.60;1.20;;;12.40;85.30;;;;;;5048036;28;20474;-79
2021/03/23 10:18:20;;;;;;;1.53;1.00;;;12.50;85.20;;;;;;5055460;28;20505;-78
2021/03/23 10:20:57;;;;;;;1.53;1.00;;;12.60;84.90;;;;;;5043215;28;20467;-79
2021/03/23 10:23:28;;;;;;;1.57;1.00;;;12.80;84.80;;;;;;5058714;28;20462;-77
2021/03/23 10:25:56;;;;;;;1.53;1.07;;;13.00;84.60;;;;;;5043401;28;20514;-79
2021/03/23 10:28:37;;;;;;;1.50;1.00;;;13.10;84.60;;;;;;5071721;28;20462;-79
2021/03/23 10:31:06;;;;;;;1.57;1.00;;;13.30;84.40;;;;;;5037510;28;20464;-79
2021/03/23 10:33:39;;;;;;;1.50;1.00;;;13.30;83.70;;;;;;5055277;28;20467;-79
2021/03/23 10:36:09;;;;;;;1.57;1.00;;;13.40;83.00;;;;;;5048350;28;20494;-79
2021/03/23 10:38:43;;;;;;;1.53;1.00;;;13.50;83.00;;;;;;5068600;28;20482;-79
2021/03/23 10:41:36;;;;;;;1.50;1.00;;;13.70;82.50;;;;;;5045400;28;20504;-79
2021/03/23 10:44:19;;;;;;;1.53;1.00;;;13.90;81.90;;;;;;5053216;28;20458;-78
2021/03/23 10:46:46;;;;;;;1.50;0.90;;;14.10;82.50;;;;;;5046444;28;21395;-79
2021/03/23 10:49:40;;;;;;;1.57;1.00;;;14.50;81.50;;;;;;5059514;28;20484;-78
2021/03/23 10:52:29;;;;;;;1.53;1.00;;;14.70;80.80;;;;;;5036644;28;20466;-79
2021/03/23 10:55:27;;;;;;;1.50;1.00;;;15.00;80.30;;;;;;5057489;28;20458;-80
2021/03/23 10:58:14;;;;;;;1.60;1.20;;;15.10;80.40;;;;;;5057809;28;20473;-80
2021/03/23 11:00:41;;;;;;;1.57;1.00;;;15.20;79.30;;;;;;5063187;28;20858;-79
2021/03/23 11:03:28;;;;;;;1.60;1.00;;;15.30;79.40;;;;;;5058474;28;20503;-78
2021/03/23 11:05:55;;;;;;;1.50;1.00;;;15.40;79.90;;;;;;5043035;28;20486;-79
2021/03/23 11:08:24;;;;;;;2.37;1.53;;;15.50;78.00;;;;;;5064533;28;20493;-79
2021/03/23 11:10:51;;;;;;;1.60;1.00;;;15.50;78.30;;;;;;5042041;28;20470;-78
2021/03/23 11:13:20;;;;;;;1.57;1.00;;;15.50;77.80;;;;;;5066925;28;20766;-80
2021/03/23 11:15:47;;;;;;;1.60;1.10;;;15.40;78.20;;;;;;5050629;28;20493;-79
2021/03/23 11:18:19;;;;;;;1.55;1.00;;;15.40;78.30;;;;;;5030318;28;20483;-79
2021/03/23 11:20:47;;;;;;;1.57;0.90;;;15.50;77.20;;;;;;5049720;28;20481;-79
2021/03/23 11:23:31;;;;;;;1.53;1.00;;;15.50;78.30;;;;;;5040110;28;21022;-79
2021/03/23 11:25:58;;;;;;;1.57;1.00;;;15.60;77.10;;;;;;5036756;28;20479;-80
2021/03/23 11:28:24;;;;;;;1.60;1.00;;;15.60;78.00;;;;;;5065925;28;20977;-78
2021/03/23 11:30:51;;;;;;;1.53;1.00;;;15.60;77.80;;;;;;5038340;28;20477;-78
2021/03/23 11:33:17;;;;;;;1.50;0.97;;;15.70;78.10;;;;;;5065371;28;20485;-77
2021/03/23 11:35:45;;;;;;;1.53;1.00;;;15.50;77.40;;;;;;5061127;28;20489;-77
2021/03/23 11:38:13;;;;;;;1.80;1.30;;;15.50;77.90;;;;;;5036301;28;20487;-77
2021/03/23 11:40:40;;;;;;;1.60;1.10;;;15.60;78.10;;;;;;5049579;28;20546;-77
2021/03/23 11:43:09;;;;;;;1.53;0.90;;;15.70;77.60;;;;;;5058544;28;20477;-77
2021/03/23 11:45:41;;;;;;;1.50;1.00;;;15.80;76.70;;;;;;5050851;28;20489;-77
2021/03/23 11:48:12;;;;;;;1.50;1.00;;;15.90;77.70;;;;;;5040883;28;20479;-77
2021/03/23 11:50:47;;;;;;;1.53;0.97;;;15.90;76.80;;;;;;5052651;28;20543;-77
2021/03/23 11:53:18;;;;;;;1.60;1.10;;;16.10;76.60;;;;;;5025907;28;20484;-76
2021/03/23 11:55:47;;;;;;;1.53;0.93;;;16.20;75.50;;;;;;5032214;28;20525;-77
2021/03/23 11:58:17;;;;;;;1.50;0.90;;;16.20;76.50;;;;;;5042516;28;20511;-77
2021/03/23 12:00:45;;;;;;;1.53;0.90;;;16.50;76.40;;;;;;5055029;28;20478;-79
2021/03/23 12:03:12;;;;;;;1.50;1.00;;;16.70;75.20;;;;;;5061362;22;20536;-77
2021/03/23 12:05:42;;;;;;;1.50;1.00;;;16.70;74.80;;;;;;5068927;28;20511;-77
2021/03/23 12:08:34;;;;;;;1.53;1.00;;;16.80;76.50;;;;;;5060691;28;20477;-78
2021/03/23 12:11:17;;;;;;;1.53;0.90;;;16.90;75.70;;;;;;5044713;28;20531;-78
2021/03/23 12:13:55;;;;;;;1.60;1.10;;;17.00;75.20;;;;;;5083458;22;20551;-76
2021/03/23 12:16:29;;;;;;;1.50;0.90;;;16.90;74.80;;;;;;5007219;28;20501;-77
2021/03/23 12:19:01;;;;;;;1.60;1.00;;;16.70;74.10;;;;;;5025922;28;20542;-78
2021/03/23 12:21:29;;;;;;;1.50;1.00;;;16.60;75.00;;;;;;5008801;28;20549;-78
2021/03/23 12:23:56;;;;;;;1.50;1.00;;;16.40;75.80;;;;;;5019604;28;20571;-78
2021/03/23 12:26:24;;;;;;;1.50;0.90;;;16.20;75.50;;;;;;5007070;28;20518;-78
2021/03/23 12:28:51;;;;;;;1.60;1.40;;;16.10;75.90;;;;;;5027873;28;20460;-78
2021/03/23 12:31:17;;;;;;;1.50;0.90;;;16.10;76.90;;;;;;5003450;28;20572;-76
2021/03/23 12:33:45;;;;;;;1.57;1.00;;;16.00;76.40;;;;;;5026293;28;20477;-79
2021/03/23 12:36:13;;;;;;;1.50;1.00;;;15.90;76.00;;;;;;5006980;28;20895;-78
2021/03/23 12:38:42;;;;;;;1.53;1.00;;;15.80;76.90;;;;;;5028738;28;20563;-77
2021/03/23 12:41:12;;;;;;;1.50;1.00;;;15.60;76.70;;;;;;5046231;22;20505;-79
2021/03/23 12:43:41;;;;;;;1.57;1.00;;;15.60;78.50;;;;;;5081973;22;20491;-77
2021/03/23 12:46:08;;;;;;;1.50;1.00;;;15.90;77.50;;;;;;5025573;28;20642;-78
2021/03/23 12:48:34;;;;;;;1.53;1.00;;;16.20;75.50;;;;;;5043700;28;21025;-77
2021/03/23 12:51:04;;;;;;;1.57;1.00;;;16.40;75.50;;;;;;5025587;28;20506;-78
2021/03/23 12:53:37;;;;;;;1.50;1.00;;;16.50;75.30;;;;;;5049521;28;20466;-78
2021/03/23 12:56:06;;;;;;;1.50;0.90;;;16.50;75.90;;;;;;5028399;28;20482;-77
2021/03/23 12:58:34;;;;;;;1.50;0.90;;;16.70;74.90;;;;;;5043002;28;20479;-78
2021/03/23 13:01:01;;;;;;;1.57;1.00;;;16.90;75.30;;;;;;5027116;28;20463;-78
2021/03/23 13:03:27;;;;;;;1.53;1.00;;;16.90;73.40;;;;;;5047662;28;21114;-79
2021/03/23 13:05:55;;;;;;;1.50;1.00;;;16.90;73.10;;;;;;5019955;28;20491;-78
2021/03/23 13:08:28;;;;;;;1.50;1.00;;;16.80;73.90;;;;;;5043230;28;20531;-79
2021/03/23 13:10:59;;;;;;;1.50;1.00;;;16.70;75.10;;;;;;5022572;28;20459;-78
2021/03/23 13:13:29;;;;;;;1.50;0.97;;;16.60;75.20;;;;;;5045504;28;20472;-78
2021/03/23 13:15:57;;;;;;;1.50;0.90;;;16.50;74.90;;;;;;5020973;28;20491;-77
2021/03/23 13:18:28;;;;;;;1.50;0.90;;;16.40;75.40;;;;;;5045942;28;20539;-76
2021/03/23 13:20:57;;;;;;;1.80;1.50;;;16.30;76.00;;;;;;5025556;28;20463;-77
2021/03/23 13:23:29;;;;;;;1.53;1.00;;;16.10;74.80;;;;;;5035177;28;20483;-77
2021/03/23 13:26:01;;;;;;;1.50;1.00;;;15.90;76.30;;;;;;5025588;28;20555;-78
2021/03/23 13:28:40;;;;;;;1.57;1.00;;;15.80;76.60;;;;;;5045182;28;20561;-77
2021/03/23 13:31:07;;;;;;;1.53;1.00;;;15.70;76.70;;;;;;5061469;22;20471;-77
2021/03/23 13:33:36;;;;;;;1.50;0.90;;;15.70;77.40;;;;;;5020383;28;20460;-78
2021/03/23 13:36:08;;;;;;;1.53;1.00;;;15.70;77.80;;;;;;5003165;28;20494;-79